createdAt,value
2024-04-30T00:00:04.295Z,93.84
2024-04-30T00:01:04.425Z,92.55
2024-04-30T00:02:04.345Z,94.57
2024-04-30T00:03:04.394Z,95.19
2024-04-30T00:04:04.535Z,93.68
2024-04-30T00:05:04.713Z,95.58
2024-04-30T00:06:04.510Z,94.01
2024-04-30T00:07:04.571Z,93.43
2024-04-30T00:08:04.601Z,91.74
2024-04-30T00:09:04.643Z,91.81
2024-04-30T00:10:04.686Z,92.94
2024-04-30T00:11:04.730Z,93.76
2024-04-30T00:12:04.719Z,93.09
2024-04-30T00:13:04.773Z,93.19
2024-04-30T00:14:04.806Z,92.57
2024-04-30T00:15:04.843Z,92.24
2024-04-30T00:16:04.888Z,92.46
2024-04-30T00:17:04.885Z,92.13
2024-04-30T00:18:04.981Z,93.28
2024-04-30T00:19:05.050Z,93.33
2024-04-30T00:20:05.093Z,91.10
2024-04-30T00:21:05.061Z,92.04
2024-04-30T00:22:05.114Z,92.48
2024-04-30T00:23:05.116Z,92.25
2024-04-30T00:24:05.169Z,91.87
2024-04-30T00:25:05.271Z,92.80
2024-04-30T00:26:05.220Z,91.81
2024-04-30T00:27:05.273Z,92.12
2024-04-30T00:28:05.322Z,92.13
2024-04-30T00:29:05.309Z,91.78
2024-04-30T00:30:05.363Z,91.95
2024-04-30T00:31:05.442Z,90.89
2024-04-30T00:32:05.453Z,92.05
2024-04-30T00:33:05.661Z,91.20
2024-04-30T00:34:05.573Z,91.24
2024-04-30T00:35:05.527Z,92.61
2024-04-30T00:36:05.578Z,92.57
2024-04-30T00:37:05.659Z,92.18
2024-04-30T00:38:05.663Z,91.46
2024-04-30T00:39:05.696Z,93.61
2024-04-30T00:40:05.787Z,91.42
2024-04-30T00:41:05.774Z,91.80
2024-04-30T00:42:05.798Z,90.93
2024-04-30T00:43:05.853Z,91.52
2024-04-30T00:44:05.850Z,91.11
2024-04-30T00:45:05.908Z,91.67
2024-04-30T00:46:05.997Z,93.35
2024-04-30T00:47:05.983Z,92.08
2024-04-30T00:48:06.230Z,91.44
2024-04-30T00:49:06.139Z,94.05
2024-04-30T00:50:06.111Z,91.85
2024-04-30T00:51:06.139Z,91.80
2024-04-30T00:52:06.259Z,90.76
2024-04-30T00:53:06.212Z,91.14
2024-04-30T00:54:06.266Z,90.77
2024-04-30T00:55:06.316Z,91.58
2024-04-30T00:56:06.362Z,91.83
2024-04-30T00:57:06.352Z,91.41
2024-04-30T00:58:06.442Z,92.02
2024-04-30T00:59:06.427Z,92.99
2024-04-30T01:00:06.526Z,91.58
2024-04-30T01:01:06.734Z,90.25
2024-04-30T01:02:06.554Z,90.83
2024-04-30T01:03:06.650Z,91.91
2024-04-30T01:04:06.635Z,90.92
2024-04-30T01:05:06.698Z,91.28
2024-04-30T01:06:06.695Z,93.10
2024-04-30T01:07:06.746Z,92.52
2024-04-30T01:08:06.773Z,91.06
2024-04-30T01:09:06.811Z,94.10
2024-04-30T01:10:06.901Z,92.25
2024-04-30T01:11:06.883Z,90.93
2024-04-30T01:12:06.923Z,91.77
2024-04-30T01:13:07.051Z,92.73
2024-04-30T01:14:07.006Z,91.61
2024-04-30T01:15:07.029Z,90.42
2024-04-30T01:16:07.073Z,90.81
2024-04-30T01:17:07.138Z,89.31
2024-04-30T01:18:07.191Z,90.27
2024-04-30T01:19:07.175Z,89.84
2024-04-30T01:20:07.212Z,91.94
2024-04-30T01:21:07.249Z,91.33
2024-04-30T01:22:07.293Z,91.03
2024-04-30T01:23:07.305Z,92.66
2024-04-30T01:24:07.361Z,91.61
2024-04-30T01:25:07.426Z,90.87
2024-04-30T01:26:07.412Z,91.16
2024-04-30T01:27:07.452Z,89.92
2024-04-30T01:28:07.585Z,90.92
2024-04-30T01:29:07.531Z,92.77
2024-04-30T01:30:07.565Z,92.19
2024-04-30T01:31:07.627Z,89.49
2024-04-30T01:32:07.692Z,90.60
2024-04-30T01:33:07.732Z,91.07
2024-04-30T01:34:07.736Z,90.91
2024-04-30T01:35:07.743Z,91.90
2024-04-30T01:36:07.770Z,90.05
2024-04-30T01:37:07.818Z,90.99
2024-04-30T01:38:07.839Z,90.05
2024-04-30T01:39:07.913Z,91.07
2024-04-30T01:40:07.974Z,90.79
2024-04-30T01:41:07.947Z,91.19
2024-04-30T01:42:08.008Z,89.97
2024-04-30T01:43:08.111Z,91.76
2024-04-30T01:44:08.094Z,89.58
2024-04-30T01:45:08.131Z,91.24
2024-04-30T01:46:08.171Z,90.19
2024-04-30T01:47:08.200Z,90.60
2024-04-30T01:48:08.305Z,90.93
2024-04-30T01:49:08.281Z,91.60
2024-04-30T01:50:08.306Z,90.17
2024-04-30T01:51:08.336Z,90.29
2024-04-30T01:52:08.417Z,90.03
2024-04-30T01:53:08.419Z,91.66
2024-04-30T01:54:08.471Z,90.71
2024-04-30T01:55:08.532Z,91.38
2024-04-30T01:56:08.531Z,89.89
2024-04-30T01:57:08.612Z,91.04
2024-04-30T01:58:08.641Z,88.89
2024-04-30T01:59:08.635Z,90.84
2024-04-30T02:00:08.703Z,89.25
2024-04-30T02:01:08.777Z,91.70
2024-04-30T02:02:08.771Z,90.63
2024-04-30T02:03:08.876Z,91.14
2024-04-30T02:04:08.864Z,89.73
2024-04-30T02:05:14.095Z,90.91
2024-04-30T02:06:09.885Z,90.93
2024-04-30T02:07:08.924Z,90.21
2024-04-30T02:08:08.900Z,90.69
2024-04-30T02:09:08.902Z,90.96
2024-04-30T02:10:08.938Z,88.23
2024-04-30T02:11:08.912Z,91.40
2024-04-30T02:12:08.916Z,91.35
2024-04-30T02:13:08.947Z,90.01
2024-04-30T02:14:08.917Z,90.07
2024-04-30T02:15:08.925Z,91.35
2024-04-30T02:16:09.012Z,89.66
2024-04-30T02:17:09.008Z,90.62
2024-04-30T02:18:08.951Z,91.62
2024-04-30T02:19:09.024Z,89.60
2024-04-30T02:20:08.977Z,89.12
2024-04-30T02:21:09.052Z,89.24
2024-04-30T02:22:09.073Z,89.55
2024-04-30T02:23:09.109Z,91.16
2024-04-30T02:24:09.143Z,89.58
2024-04-30T02:25:09.275Z,90.04
2024-04-30T02:26:09.214Z,88.83
2024-04-30T02:27:09.259Z,89.82
2024-04-30T02:28:09.334Z,88.97
2024-04-30T02:29:09.403Z,89.80
2024-04-30T02:30:09.423Z,88.10
2024-04-30T02:31:09.539Z,88.54
2024-04-30T02:32:09.538Z,90.98
2024-04-30T02:33:09.648Z,90.50
2024-04-30T02:34:09.682Z,88.09
2024-04-30T02:35:09.663Z,89.49
2024-04-30T02:36:09.705Z,88.53
2024-04-30T02:37:09.757Z,89.53
2024-04-30T02:38:09.772Z,90.65
2024-04-30T02:39:09.839Z,89.24
2024-04-30T02:40:09.925Z,93.61
2024-04-30T02:41:09.926Z,88.54
2024-04-30T02:42:09.981Z,90.30
2024-04-30T02:43:10.069Z,90.80
2024-04-30T02:44:10.065Z,89.25
2024-04-30T02:45:10.189Z,89.25
2024-04-30T02:46:10.187Z,88.82
2024-04-30T02:47:10.235Z,87.11
2024-04-30T02:48:10.273Z,89.33
2024-04-30T02:49:10.310Z,87.99
2024-04-30T02:50:10.352Z,88.13
2024-04-30T02:51:10.375Z,87.67
2024-04-30T02:52:10.463Z,90.11
2024-04-30T02:53:10.491Z,89.67
2024-04-30T02:54:10.521Z,90.51
2024-04-30T02:55:10.589Z,89.94
2024-04-30T02:56:10.616Z,89.00
2024-04-30T02:57:10.653Z,87.42
2024-04-30T02:58:10.737Z,89.40
2024-04-30T02:59:10.743Z,89.02
2024-04-30T03:00:10.767Z,87.92
2024-04-30T03:01:10.871Z,90.33
2024-04-30T03:02:10.887Z,89.93
2024-04-30T03:03:10.958Z,88.64
2024-04-30T03:04:11.209Z,88.55
2024-04-30T03:05:10.999Z,90.07
2024-04-30T03:06:11.042Z,88.65
2024-04-30T03:07:11.123Z,88.57
2024-04-30T03:08:11.135Z,88.67
2024-04-30T03:09:11.201Z,87.44
2024-04-30T03:10:11.244Z,89.71
2024-04-30T03:11:11.298Z,87.30
2024-04-30T03:12:11.306Z,90.21
2024-04-30T03:13:11.417Z,87.76
2024-04-30T03:14:11.392Z,88.40
2024-04-30T03:15:13.336Z,88.87
2024-04-30T03:16:11.462Z,92.35
2024-04-30T03:17:11.439Z,89.48
2024-04-30T03:18:11.470Z,87.70
2024-04-30T03:19:11.487Z,89.03
2024-04-30T03:20:11.437Z,88.82
2024-04-30T03:21:11.451Z,90.42
2024-04-30T03:22:11.456Z,88.01
2024-04-30T03:23:11.488Z,88.62
2024-04-30T03:24:11.467Z,87.49
2024-04-30T03:25:13.376Z,89.12
2024-04-30T03:26:11.450Z,87.20
2024-04-30T03:27:11.447Z,86.44
2024-04-30T03:28:11.463Z,89.49
2024-04-30T03:29:11.458Z,86.87
2024-04-30T03:30:11.468Z,88.86
2024-04-30T03:31:11.527Z,85.94
2024-04-30T03:32:11.451Z,87.48
2024-04-30T03:33:11.598Z,88.35
2024-04-30T03:34:11.509Z,88.81
2024-04-30T03:35:11.457Z,88.04
2024-04-30T03:36:11.453Z,87.66
2024-04-30T03:37:11.463Z,90.44
2024-04-30T03:38:11.497Z,86.18
2024-04-30T03:39:11.572Z,87.94
2024-04-30T03:40:11.607Z,87.73
2024-04-30T03:41:11.667Z,88.32
2024-04-30T03:42:11.674Z,87.92
2024-04-30T03:43:11.820Z,86.70
2024-04-30T03:44:11.789Z,89.57
2024-04-30T03:45:11.819Z,88.25
2024-04-30T03:46:11.873Z,88.07
2024-04-30T03:47:11.935Z,89.46
2024-04-30T03:48:11.976Z,85.99
2024-04-30T03:49:12.068Z,86.53
2024-04-30T03:50:12.038Z,89.60
2024-04-30T03:51:12.109Z,86.64
2024-04-30T03:52:12.123Z,88.79
2024-04-30T03:53:12.145Z,86.63
2024-04-30T03:54:12.227Z,85.06
2024-04-30T03:55:12.337Z,86.61
2024-04-30T03:56:12.267Z,84.88
2024-04-30T03:57:12.323Z,86.13
2024-04-30T03:58:12.365Z,85.85
2024-04-30T03:59:12.390Z,89.79
2024-04-30T04:00:12.454Z,86.99
2024-04-30T04:01:12.538Z,86.96
2024-04-30T04:02:12.508Z,85.82
2024-04-30T04:03:12.571Z,87.71
2024-04-30T04:04:12.683Z,86.44
2024-04-30T04:05:12.666Z,85.36
2024-04-30T04:06:16.071Z,88.92
2024-04-30T04:07:12.701Z,88.92
2024-04-30T04:08:12.661Z,87.45
2024-04-30T04:09:12.689Z,89.29
2024-04-30T04:10:12.732Z,88.60
2024-04-30T04:11:12.693Z,86.16
2024-04-30T04:12:12.680Z,88.87
2024-04-30T04:13:12.707Z,90.15
2024-04-30T04:14:12.675Z,85.53
2024-04-30T04:15:12.683Z,87.31
2024-04-30T04:16:12.668Z,89.42
2024-04-30T04:17:12.662Z,84.28
2024-04-30T04:18:12.811Z,88.04
2024-04-30T04:19:12.709Z,86.82
2024-04-30T04:20:12.679Z,86.64
2024-04-30T04:21:21.895Z,50.00
2024-04-30T04:22:19.893Z,50.00
2024-04-30T04:23:19.863Z,50.00
2024-04-30T04:24:19.867Z,50.00
2024-04-30T04:25:19.866Z,50.00
2024-04-30T04:26:19.860Z,50.00
2024-04-30T04:27:19.844Z,52.50
2024-04-30T04:28:19.936Z,55.90
2024-04-30T04:29:19.881Z,53.39
2024-04-30T04:30:19.876Z,53.02
2024-04-30T04:31:27.117Z,50.00
2024-04-30T04:32:27.150Z,50.00
2024-04-30T04:33:27.204Z,50.00
2024-04-30T04:34:27.088Z,50.00
2024-04-30T04:35:27.073Z,50.00
2024-04-30T04:36:27.068Z,50.78
2024-04-30T04:37:27.658Z,53.08
2024-04-30T04:38:27.076Z,57.40
2024-04-30T04:39:27.074Z,52.73
2024-04-30T04:40:27.152Z,53.26
2024-04-30T04:41:27.095Z,55.18
2024-04-30T04:42:27.104Z,53.29
2024-04-30T04:43:27.210Z,53.17
2024-04-30T04:44:27.073Z,51.65
2024-04-30T04:45:27.099Z,51.57
2024-04-30T04:46:27.142Z,51.22
2024-04-30T04:47:27.133Z,52.67
2024-04-30T04:48:27.159Z,55.42
2024-04-30T04:49:27.127Z,51.35
2024-04-30T04:50:27.081Z,55.79
2024-04-30T04:51:27.105Z,54.71
2024-04-30T04:52:27.075Z,54.20
2024-04-30T04:53:27.122Z,53.01
2024-04-30T04:54:27.078Z,52.42
2024-04-30T04:55:27.137Z,52.41
2024-04-30T04:56:27.166Z,49.94
2024-04-30T04:57:27.185Z,52.95
2024-04-30T04:58:27.242Z,51.01
2024-04-30T04:59:27.254Z,53.11
2024-04-30T05:00:27.320Z,51.90
2024-04-30T05:01:27.369Z,51.63
2024-04-30T05:02:27.524Z,52.79
2024-04-30T05:03:27.758Z,52.03
2024-04-30T05:04:27.583Z,50.83
2024-04-30T05:05:27.502Z,50.05
2024-04-30T05:06:27.577Z,52.50
2024-04-30T05:07:27.707Z,52.66
2024-04-30T05:08:27.640Z,50.76
2024-04-30T05:09:27.671Z,52.71
2024-04-30T05:10:27.760Z,55.64
2024-04-30T05:11:27.792Z,51.76
2024-04-30T05:12:27.821Z,52.12
2024-04-30T05:13:27.869Z,52.31
2024-04-30T05:14:27.885Z,54.18
2024-04-30T05:15:27.903Z,53.13
2024-04-30T05:16:27.953Z,53.27
2024-04-30T05:17:28.076Z,52.70
2024-04-30T05:18:28.010Z,52.85
2024-04-30T05:19:28.082Z,53.14
2024-04-30T05:20:28.081Z,53.68
2024-04-30T05:21:28.100Z,55.73
2024-04-30T05:22:28.225Z,50.83
2024-04-30T05:23:28.187Z,51.08
2024-04-30T05:24:28.246Z,51.63
2024-04-30T05:25:28.302Z,52.15
2024-04-30T05:26:28.318Z,51.58
2024-04-30T05:27:28.398Z,51.55
2024-04-30T05:28:28.539Z,51.64
2024-04-30T05:29:28.445Z,51.42
2024-04-30T05:30:28.466Z,52.37
2024-04-30T05:31:28.561Z,52.66
2024-04-30T05:32:28.568Z,53.89
2024-04-30T05:33:28.948Z,52.26
2024-04-30T05:34:28.776Z,50.00
2024-04-30T05:35:28.644Z,51.88
2024-04-30T05:36:28.678Z,50.67
2024-04-30T05:37:28.713Z,51.81
2024-04-30T05:38:28.687Z,52.01
2024-04-30T05:39:28.765Z,55.04
2024-04-30T05:40:28.729Z,57.22
2024-04-30T05:41:28.735Z,66.60
2024-04-30T05:42:28.748Z,80.63
2024-04-30T05:43:28.751Z,84.11
2024-04-30T05:44:28.754Z,86.02
2024-04-30T05:45:28.845Z,86.00
2024-04-30T05:46:28.984Z,88.63
2024-04-30T05:47:28.933Z,91.92
2024-04-30T05:48:29.226Z,95.96
2024-04-30T05:49:29.129Z,102.37
2024-04-30T05:50:29.135Z,105.01
2024-04-30T05:51:29.196Z,109.22
2024-04-30T05:52:29.277Z,113.22
2024-04-30T05:53:29.398Z,119.66
2024-04-30T05:54:30.187Z,122.90
2024-04-30T05:55:29.559Z,129.57
2024-04-30T05:56:29.496Z,131.98
2024-04-30T05:57:29.568Z,140.98
2024-04-30T05:58:29.630Z,149.12
2024-04-30T05:59:29.648Z,151.86
2024-04-30T06:00:29.692Z,156.26
2024-04-30T06:01:29.749Z,161.85
2024-04-30T06:02:29.758Z,167.32
2024-04-30T06:03:29.937Z,172.39
2024-04-30T06:04:29.929Z,174.94
2024-04-30T06:05:30.078Z,180.56
2024-04-30T06:06:29.988Z,185.71
2024-04-30T06:07:30.054Z,190.01
2024-04-30T06:08:30.056Z,195.17
2024-04-30T06:09:30.051Z,198.48
2024-04-30T06:10:30.157Z,199.97
2024-04-30T06:11:30.225Z,199.36
2024-04-30T06:12:30.238Z,200.00
2024-04-30T06:13:30.348Z,199.93
2024-04-30T06:14:30.333Z,200.00
2024-04-30T06:15:30.390Z,200.00
2024-04-30T06:16:30.475Z,200.00
2024-04-30T06:18:30.569Z,200.00
2024-04-30T06:19:30.619Z,200.00
2024-04-30T06:20:30.650Z,199.67
2024-04-30T06:21:36.105Z,199.98
2024-04-30T06:22:31.756Z,200.17
2024-04-30T06:23:30.670Z,201.21
2024-04-30T06:24:30.693Z,202.87
2024-04-30T06:25:30.768Z,206.71
2024-04-30T06:26:30.694Z,211.89
2024-04-30T06:27:30.682Z,199.64
2024-04-30T06:28:34.030Z,199.91
2024-04-30T06:29:30.700Z,199.98
2024-04-30T06:30:30.674Z,200.56
2024-04-30T06:31:30.721Z,202.03
2024-04-30T06:32:30.734Z,204.45
2024-04-30T06:33:30.770Z,210.93
2024-04-30T06:34:30.794Z,200.00
2024-04-30T06:35:30.724Z,199.86
2024-04-30T06:36:30.693Z,200.13
2024-04-30T06:37:30.847Z,199.89
2024-04-30T06:38:30.797Z,200.00
2024-04-30T06:39:30.719Z,198.25
2024-04-30T06:40:30.792Z,198.63
2024-04-30T06:41:30.716Z,199.72
2024-04-30T06:42:30.749Z,198.81
2024-04-30T06:43:30.744Z,197.58
2024-04-30T06:44:30.713Z,197.11
2024-04-30T06:45:30.712Z,199.30
2024-04-30T06:46:30.748Z,199.82
2024-04-30T06:47:30.798Z,199.52
2024-04-30T06:48:30.880Z,198.87
2024-04-30T06:49:30.738Z,198.87
2024-04-30T06:50:30.722Z,199.61
2024-04-30T06:51:30.738Z,200.00
2024-04-30T06:52:30.850Z,199.16
2024-04-30T06:53:30.733Z,198.44
2024-04-30T06:54:30.734Z,199.17
2024-04-30T06:55:30.794Z,200.00
2024-04-30T06:56:30.733Z,199.74
2024-04-30T06:57:30.738Z,200.46
2024-04-30T06:58:30.786Z,199.50
2024-04-30T06:59:30.737Z,198.64
2024-04-30T07:00:30.782Z,199.48
2024-04-30T07:01:30.777Z,199.28
2024-04-30T07:02:30.763Z,198.47
2024-04-30T07:03:30.736Z,198.55
2024-04-30T07:04:30.829Z,198.69
2024-04-30T07:05:30.897Z,199.54
2024-04-30T07:06:30.749Z,199.45
2024-04-30T07:07:30.830Z,199.61
2024-04-30T07:08:30.730Z,199.64
2024-04-30T07:09:30.778Z,200.00
2024-04-30T07:10:30.821Z,199.65
2024-04-30T07:11:31.081Z,199.81
2024-04-30T07:12:30.764Z,198.77
2024-04-30T07:13:30.785Z,198.55
2024-04-30T07:14:30.818Z,199.34
2024-04-30T07:15:30.735Z,198.85
2024-04-30T07:16:30.995Z,199.36
2024-04-30T07:17:30.873Z,200.00
2024-04-30T07:18:30.977Z,199.80
2024-04-30T07:19:30.831Z,199.13
2024-04-30T07:20:30.780Z,199.53
2024-04-30T07:21:30.842Z,199.52
2024-04-30T07:22:30.891Z,199.73
2024-04-30T07:23:30.846Z,198.41
2024-04-30T07:24:31.228Z,199.01
2024-04-30T07:25:30.821Z,200.00
2024-04-30T07:26:30.783Z,200.00
2024-04-30T07:27:30.818Z,199.30
2024-04-30T07:28:30.860Z,199.22
2024-04-30T07:29:30.800Z,199.62
2024-04-30T07:30:30.784Z,199.63
2024-04-30T07:31:30.921Z,199.05
2024-04-30T07:32:30.922Z,200.00
2024-04-30T07:33:30.821Z,196.34
2024-04-30T07:34:30.899Z,193.09
2024-04-30T07:35:30.785Z,189.36
2024-04-30T07:36:30.882Z,185.55
2024-04-30T07:37:30.817Z,182.01
2024-04-30T07:38:30.790Z,176.30
2024-04-30T07:39:30.805Z,169.88
2024-04-30T07:40:30.932Z,166.59
2024-04-30T07:41:30.778Z,164.13
2024-04-30T07:42:30.811Z,163.01
2024-04-30T07:43:31.802Z,162.21
2024-04-30T07:44:31.262Z,161.08
2024-04-30T07:45:30.901Z,161.54
2024-04-30T07:46:30.983Z,161.37
2024-04-30T07:47:31.116Z,160.98
2024-04-30T07:48:31.276Z,159.53
2024-04-30T07:49:31.229Z,159.69
2024-04-30T07:50:31.177Z,160.47
2024-04-30T07:51:31.283Z,161.77
2024-04-30T07:52:31.319Z,162.68
2024-04-30T07:53:31.354Z,163.99
2024-04-30T07:54:31.462Z,166.58
2024-04-30T07:55:31.544Z,166.65
2024-04-30T07:56:31.507Z,166.75
2024-04-30T07:57:31.563Z,166.17
2024-04-30T07:58:31.671Z,166.58
2024-04-30T07:59:31.648Z,165.21
2024-04-30T08:00:31.703Z,165.18
2024-04-30T08:01:31.844Z,166.63
2024-04-30T08:02:31.829Z,164.84
2024-04-30T08:03:32.341Z,162.88
2024-04-30T08:04:38.248Z,163.66
2024-04-30T08:05:42.057Z,163.73
2024-04-30T08:06:32.883Z,163.77
2024-04-30T08:07:31.975Z,164.10
2024-04-30T08:08:31.926Z,165.11
2024-04-30T08:09:31.892Z,166.31
2024-04-30T08:10:31.901Z,167.96
2024-04-30T08:11:31.915Z,167.89
2024-04-30T08:12:31.888Z,166.17
2024-04-30T08:13:31.898Z,167.10
2024-04-30T08:14:35.544Z,164.97
2024-04-30T08:15:31.896Z,165.11
2024-04-30T08:16:31.982Z,165.60
2024-04-30T08:17:31.957Z,167.02
2024-04-30T08:18:31.897Z,169.14
2024-04-30T08:19:31.995Z,172.52
2024-04-30T08:20:31.899Z,171.09
2024-04-30T08:21:32.824Z,169.47
2024-04-30T08:22:31.973Z,167.29
2024-04-30T08:23:31.945Z,168.62
2024-04-30T08:24:32.284Z,168.77
2024-04-30T08:25:32.040Z,150.89
2024-04-30T08:26:31.896Z,135.60
2024-04-30T08:27:31.924Z,133.21
2024-04-30T08:28:31.990Z,133.93
2024-04-30T08:29:31.957Z,123.10
2024-04-30T08:30:31.937Z,114.80
2024-04-30T08:31:31.944Z,112.26
2024-04-30T08:32:32.016Z,114.90
2024-04-30T08:33:31.969Z,102.84
2024-04-30T08:34:31.920Z,97.80
2024-04-30T08:35:31.930Z,88.20
2024-04-30T08:36:32.897Z,79.88
2024-04-30T08:37:34.419Z,69.46
2024-04-30T08:38:32.950Z,60.66
2024-04-30T08:39:32.280Z,50.30
2024-04-30T08:40:31.951Z,35.78
2024-04-30T08:41:31.929Z,31.85
2024-04-30T08:42:31.966Z,26.76
2024-04-30T08:43:31.951Z,38.94
2024-04-30T08:44:32.292Z,50.95
2024-04-30T08:45:31.999Z,56.82
2024-04-30T08:46:31.970Z,58.24
2024-04-30T08:47:32.097Z,60.47
2024-04-30T08:48:31.987Z,63.21
2024-04-30T08:49:38.551Z,63.01
2024-04-30T08:50:33.868Z,57.45
2024-04-30T08:51:32.059Z,52.88
2024-04-30T08:52:32.083Z,41.79
2024-04-30T08:53:32.813Z,23.92
2024-04-30T08:54:32.789Z,0.00
2024-04-30T08:55:32.079Z,0.00
2024-04-30T08:56:32.106Z,0.00
2024-04-30T08:57:32.055Z,0.00
2024-04-30T08:58:32.089Z,0.00
2024-04-30T08:59:32.287Z,0.00
2024-04-30T09:00:32.088Z,0.74
2024-04-30T09:01:32.152Z,5.05
2024-04-30T09:02:32.149Z,3.45
2024-04-30T09:03:32.155Z,0.68
2024-04-30T09:04:32.392Z,12.02
2024-04-30T09:05:32.287Z,19.49
2024-04-30T09:06:32.244Z,28.45
2024-04-30T09:07:32.457Z,34.68
2024-04-30T09:08:32.404Z,43.93
2024-04-30T09:09:32.506Z,50.27
2024-04-30T09:10:32.531Z,50.38
2024-04-30T09:11:32.716Z,50.30
2024-04-30T09:12:32.704Z,50.25
2024-04-30T09:13:32.824Z,50.00
2024-04-30T09:14:32.755Z,50.00
2024-04-30T09:15:32.755Z,49.95
2024-04-30T09:16:32.774Z,48.73
2024-04-30T09:17:32.804Z,49.62
2024-04-30T09:18:32.824Z,47.90
2024-04-30T09:19:32.885Z,49.33
2024-04-30T09:20:32.813Z,50.11
2024-04-30T09:21:32.810Z,50.00
2024-04-30T09:22:32.904Z,49.20
2024-04-30T09:23:32.833Z,49.99
2024-04-30T09:24:32.924Z,50.22
2024-04-30T09:25:32.969Z,51.51
2024-04-30T09:26:32.983Z,50.22
2024-04-30T09:27:33.088Z,50.97
2024-04-30T09:28:33.137Z,49.61
2024-04-30T09:29:33.178Z,50.00
2024-04-30T09:30:33.285Z,50.14
2024-04-30T09:31:33.239Z,50.66
2024-04-30T09:32:33.274Z,49.29
2024-04-30T09:33:33.503Z,50.59
2024-04-30T09:34:33.346Z,49.84
2024-04-30T09:35:33.254Z,50.00
2024-04-30T09:36:33.293Z,53.31
2024-04-30T09:37:33.410Z,56.08
2024-04-30T09:38:33.330Z,55.14
2024-04-30T09:39:33.777Z,53.49
2024-04-30T09:40:33.377Z,54.53
2024-04-30T09:41:33.814Z,55.33
2024-04-30T09:42:33.401Z,53.46
2024-04-30T09:43:33.472Z,51.68
2024-04-30T09:44:33.395Z,51.12
2024-04-30T09:45:33.435Z,51.13
2024-04-30T09:46:33.528Z,52.32
2024-04-30T09:47:33.465Z,52.25
2024-04-30T09:48:33.448Z,51.11
2024-04-30T09:49:33.471Z,51.37
2024-04-30T09:50:33.432Z,49.90
2024-04-30T09:51:34.463Z,50.21
2024-04-30T09:52:33.552Z,50.00
2024-04-30T09:53:33.611Z,49.92
2024-04-30T09:54:33.833Z,50.00
2024-04-30T09:55:33.723Z,50.37
2024-04-30T09:56:33.695Z,50.48
2024-04-30T09:57:33.800Z,50.50
2024-04-30T09:58:33.967Z,50.00
2024-04-30T09:59:33.884Z,50.06
2024-04-30T10:00:33.912Z,52.59
2024-04-30T10:01:34.038Z,52.53
2024-04-30T10:02:34.034Z,50.11
2024-04-30T10:03:34.017Z,50.57
2024-04-30T10:04:34.140Z,53.82
2024-04-30T10:05:34.040Z,51.57
2024-04-30T10:06:34.065Z,50.16
2024-04-30T10:07:34.138Z,50.65
2024-04-30T10:08:34.175Z,51.74
2024-04-30T10:09:34.207Z,51.95
2024-04-30T10:10:34.263Z,54.42
2024-04-30T10:11:34.422Z,55.11
2024-04-30T10:12:34.261Z,55.18
2024-04-30T10:13:34.410Z,54.01
2024-04-30T10:14:34.306Z,51.58
2024-04-30T10:15:34.427Z,50.49
2024-04-30T10:16:34.491Z,49.56
2024-04-30T10:17:34.528Z,53.52
2024-04-30T10:18:35.058Z,55.68
2024-04-30T10:19:34.460Z,53.49
2024-04-30T10:20:34.739Z,56.27
2024-04-30T10:21:34.516Z,55.95
2024-04-30T10:22:34.575Z,55.07
2024-04-30T10:23:34.491Z,54.90
2024-04-30T10:24:34.473Z,52.00
2024-04-30T10:25:34.646Z,54.46
2024-04-30T10:26:34.503Z,51.16
2024-04-30T10:27:34.544Z,49.42
2024-04-30T10:28:34.616Z,49.14
2024-04-30T10:29:34.678Z,50.78
2024-04-30T10:30:34.694Z,55.40
2024-04-30T10:31:34.797Z,57.99
2024-04-30T10:32:34.952Z,57.50
2024-04-30T10:33:34.920Z,59.35
2024-04-30T10:34:35.412Z,62.90
2024-04-30T10:35:35.067Z,66.26
2024-04-30T10:36:35.318Z,70.00
2024-04-30T10:37:35.228Z,71.85
2024-04-30T10:38:35.245Z,73.79
2024-04-30T10:39:35.308Z,72.88
2024-04-30T10:40:35.335Z,71.61
2024-04-30T10:41:35.349Z,73.45
2024-04-30T10:42:35.278Z,75.02
2024-04-30T10:43:35.352Z,74.99
2024-04-30T10:44:35.334Z,74.98
2024-04-30T10:45:35.316Z,76.00
2024-04-30T10:46:35.376Z,78.86
2024-04-30T10:47:35.466Z,78.11
2024-04-30T10:48:35.386Z,79.38
2024-04-30T10:49:35.358Z,79.62
2024-04-30T10:50:35.322Z,80.13
2024-04-30T10:51:35.335Z,79.12
2024-04-30T10:52:35.391Z,78.39
2024-04-30T10:53:35.363Z,76.15
2024-04-30T10:54:35.432Z,77.18
2024-04-30T10:55:35.398Z,78.89
2024-04-30T10:56:35.367Z,77.90
2024-04-30T10:57:35.379Z,77.55
2024-04-30T10:58:35.435Z,77.21
2024-04-30T10:59:35.488Z,77.24
2024-04-30T11:00:35.490Z,77.30
2024-04-30T11:01:35.736Z,77.99
2024-04-30T11:02:35.501Z,80.97
2024-04-30T11:03:35.501Z,80.05
2024-04-30T11:04:35.553Z,78.06
2024-04-30T11:05:35.581Z,78.66
2024-04-30T11:06:35.609Z,74.33
2024-04-30T11:07:35.559Z,67.44
2024-04-30T11:08:35.524Z,67.74
2024-04-30T11:09:35.490Z,73.92
2024-04-30T11:10:35.552Z,72.65
2024-04-30T11:11:35.582Z,69.17
2024-04-30T11:12:35.592Z,72.14
2024-04-30T11:13:35.576Z,75.96
2024-04-30T11:14:35.556Z,77.91
2024-04-30T11:15:35.556Z,79.29
2024-04-30T11:16:35.679Z,82.19
2024-04-30T11:17:35.658Z,81.93
2024-04-30T11:18:35.680Z,84.02
2024-04-30T11:19:35.891Z,89.21
2024-04-30T11:20:35.656Z,93.04
2024-04-30T11:21:35.715Z,92.29
2024-04-30T11:22:36.387Z,92.40
2024-04-30T11:23:35.738Z,95.76
2024-04-30T11:24:35.865Z,100.50
2024-04-30T11:25:35.793Z,103.34
2024-04-30T11:26:35.799Z,105.96
2024-04-30T11:27:35.841Z,108.26
2024-04-30T11:28:35.950Z,111.69
2024-04-30T11:29:40.076Z,113.91
2024-04-30T11:30:35.917Z,113.95
2024-04-30T11:31:35.972Z,114.32
2024-04-30T11:32:36.093Z,115.15
2024-04-30T11:33:35.908Z,116.85
2024-04-30T11:34:36.019Z,120.83
2024-04-30T11:35:35.937Z,124.04
2024-04-30T11:36:35.913Z,125.26
2024-04-30T11:37:35.985Z,126.72
2024-04-30T11:38:35.971Z,128.12
2024-04-30T11:39:35.925Z,128.54
2024-04-30T11:40:35.931Z,130.51
2024-04-30T11:41:37.033Z,132.12
2024-04-30T11:42:42.491Z,133.22
2024-04-30T11:43:36.951Z,133.27
2024-04-30T11:44:35.929Z,133.55
2024-04-30T11:45:35.933Z,134.48
2024-04-30T11:46:36.178Z,135.69
2024-04-30T11:47:35.994Z,138.26
2024-04-30T11:48:35.966Z,138.77
2024-04-30T11:49:35.970Z,139.48
2024-04-30T11:50:35.937Z,140.07
2024-04-30T11:51:35.936Z,140.69
2024-04-30T11:52:36.004Z,140.76
2024-04-30T11:53:37.370Z,141.63
2024-04-30T11:54:35.949Z,142.75
2024-04-30T11:55:35.968Z,143.51
2024-04-30T11:56:35.992Z,144.93
2024-04-30T11:57:35.967Z,145.07
2024-04-30T11:58:35.944Z,145.13
2024-04-30T11:59:35.970Z,145.50
2024-04-30T12:00:37.861Z,146.36
2024-04-30T12:01:35.959Z,146.38
2024-04-30T12:02:36.009Z,146.53
2024-04-30T12:03:35.949Z,146.84
2024-04-30T12:04:36.005Z,147.52
2024-04-30T12:05:36.066Z,148.79
2024-04-30T12:06:38.601Z,149.01
2024-04-30T12:07:36.027Z,149.05
2024-04-30T12:08:35.952Z,149.26
2024-04-30T12:09:35.985Z,149.64
2024-04-30T12:10:36.000Z,150.21
2024-04-30T12:11:36.020Z,151.55
2024-04-30T12:12:35.935Z,151.70
2024-04-30T12:13:35.962Z,151.86
2024-04-30T12:14:35.935Z,152.58
2024-04-30T12:15:35.945Z,152.64
2024-04-30T12:16:36.021Z,153.20
2024-04-30T12:17:36.018Z,153.59
2024-04-30T12:18:35.960Z,153.92
2024-04-30T12:19:36.010Z,154.28
2024-04-30T12:20:35.993Z,153.86
2024-04-30T12:21:35.963Z,154.39
2024-04-30T12:22:36.016Z,155.18
2024-04-30T12:23:35.981Z,155.98
2024-04-30T12:24:35.981Z,157.39
2024-04-30T12:25:35.994Z,157.86
2024-04-30T12:26:35.961Z,160.48
2024-04-30T12:27:36.005Z,158.50
2024-04-30T12:28:36.028Z,158.54
2024-04-30T12:29:36.016Z,156.49
2024-04-30T12:30:35.974Z,156.86
2024-04-30T12:31:36.032Z,155.73
2024-04-30T12:32:35.999Z,155.06
2024-04-30T12:33:36.012Z,155.47
2024-04-30T12:34:36.012Z,153.54
2024-04-30T12:35:35.983Z,151.83
2024-04-30T12:36:36.004Z,152.95
2024-04-30T12:37:36.018Z,152.67
2024-04-30T12:38:35.955Z,151.10
2024-04-30T12:39:35.973Z,150.73
2024-04-30T12:40:35.995Z,150.65
2024-04-30T12:41:35.970Z,149.87
2024-04-30T12:42:35.985Z,149.27
2024-04-30T12:43:36.013Z,149.95
2024-04-30T12:44:35.994Z,149.21
2024-04-30T12:45:35.982Z,149.57
2024-04-30T12:46:36.026Z,148.25